sensor_id;sensor_type;location;lat;lon;timestamp;pressure;altitude;pressure_sealevel;temperature;humidity
20622;BME280;10470;42.670;23.354;2023-02-11T00:01:35;96480.00;;;-2.10;100.00
20622;BME280;10470;42.670;23.354;2023-02-11T00:04:20;96476.88;;;-2.12;100.00
20622;BME280;10470;42.670;23.354;2023-02-11T00:07:06;96483.59;;;-2.06;100.00
20622;BME280;10470;42.670;23.354;2023-02-11T00:09:51;96469.84;;;-2.17;100.00
20622;BME280;10470;42.670;23.354;2023-02-11T00:12:37;96475.28;;;-2.13;100.00
20622;BME280;10470;42.670;23.354;2023-02-11T00:15:22;96478.81;;;-2.22;100.00
20622;BME280;10470;42.670;23.354;2023-02-11T00:18:08;96487.34;;;-2.37;100.00
20622;BME280;10470;42.670;23.354;2023-02-11T00:20:53;96457.28;;;-2.46;100.00
20622;BME280;10470;42.670;23.354;2023-02-11T00:23:38;96478.97;;;-2.27;100.00
20622;BME280;10470;42.670;23.354;2023-02-11T00:26:27;96478.69;;;-2.34;100.00
20622;BME280;10470;42.670;23.354;2023-02-11T00:29:12;96471.16;;;-2.32;100.00
20622;BME280;10470;42.670;23.354;2023-02-11T00:31:58;96480.75;;;-2.31;100.00
20622;BME280;10470;42.670;23.354;2023-02-11T00:34:51;96478.75;;;-2.43;100.00
20622;BME280;10470;42.670;23.354;2023-02-11T00:37:37;96463.22;;;-2.49;100.00
20622;BME280;10470;42.670;23.354;2023-02-11T00:40:23;96468.72;;;-2.46;100.00
20622;BME280;10470;42.670;23.354;2023-02-11T00:43:08;96464.16;;;-2.45;100.00
20622;BME280;10470;42.670;23.354;2023-02-11T00:45:54;96469.13;;;-2.35;100.00
20622;BME280;10470;42.670;23.354;2023-02-11T00:48:39;96468.66;;;-2.37;100.00
20622;BME280;10470;42.670;23.354;2023-02-11T00:51:26;96469.19;;;-2.44;100.00
20622;BME280;10470;42.670;23.354;2023-02-11T00:54:12;96466.06;;;-2.46;100.00
20622;BME280;10470;42.670;23.354;2023-02-11T00:56:57;96454.25;;;-2.36;100.00
20622;BME280;10470;42.670;23.354;2023-02-11T00:59:43;96464.63;;;-2.43;100.00
20622;BME280;10470;42.670;23.354;2023-02-11T01:02:28;96450.44;;;-2.65;100.00
20622;BME280;10470;42.670;23.354;2023-02-11T01:05:13;96458.75;;;-2.66;100.00
20622;BME280;10470;42.670;23.354;2023-02-11T01:07:59;96447.31;;;-2.67;100.00
20622;BME280;10470;42.670;23.354;2023-02-11T01:10:56;96457.16;;;-2.58;100.00
20622;BME280;10470;42.670;23.354;2023-02-11T01:13:41;96461.56;;;-2.63;100.00
20622;BME280;10470;42.670;23.354;2023-02-11T01:16:27;96463.13;;;-2.61;100.00
20622;BME280;10470;42.670;23.354;2023-02-11T01:19:12;96464.75;;;-2.78;100.00
20622;BME280;10470;42.670;23.354;2023-02-11T01:21:58;96447.19;;;-2.79;100.00
20622;BME280;10470;42.670;23.354;2023-02-11T01:24:43;96454.25;;;-2.83;100.00
20622;BME280;10470;42.670;23.354;2023-02-11T01:27:29;96445.19;;;-2.91;100.00
20622;BME280;10470;42.670;23.354;2023-02-11T01:30:14;96452.22;;;-2.86;100.00
20622;BME280;10470;42.670;23.354;2023-02-11T01:33:00;96456.00;;;-2.87;100.00
20622;BME280;10470;42.670;23.354;2023-02-11T01:35:45;96450.50;;;-2.82;100.00
20622;BME280;10470;42.670;23.354;2023-02-11T01:38:31;96449.44;;;-2.98;100.00
20622;BME280;10470;42.670;23.354;2023-02-11T01:41:17;96442.06;;;-3.01;100.00
20622;BME280;10470;42.670;23.354;2023-02-11T01:44:26;96447.28;;;-3.05;100.00
20622;BME280;10470;42.670;23.354;2023-02-11T01:47:12;96442.25;;;-3.07;100.00
20622;BME280;10470;42.670;23.354;2023-02-11T01:50:00;96434.88;;;-3.10;100.00
20622;BME280;10470;42.670;23.354;2023-02-11T01:52:46;96448.22;;;-3.01;100.00
20622;BME280;10470;42.670;23.354;2023-02-11T01:55:32;96442.06;;;-3.01;100.00
20622;BME280;10470;42.670;23.354;2023-02-11T01:58:38;96443.66;;;-3.00;100.00
20622;BME280;10470;42.670;23.354;2023-02-11T02:01:26;96439.59;;;-3.07;100.00
20622;BME280;10470;42.670;23.354;2023-02-11T02:04:16;96444.31;;;-3.03;100.00
20622;BME280;10470;42.670;23.354;2023-02-11T02:07:09;96435.19;;;-3.02;100.00
20622;BME280;10470;42.670;23.354;2023-02-11T02:10:08;96440.50;;;-2.94;100.00
20622;BME280;10470;42.670;23.354;2023-02-11T02:12:54;96438.16;;;-3.04;100.00
20622;BME280;10470;42.670;23.354;2023-02-11T02:15:46;96440.66;;;-2.90;100.00
20622;BME280;10470;42.670;23.354;2023-02-11T02:18:51;96444.91;;;-3.07;100.00
20622;BME280;10470;42.670;23.354;2023-02-11T02:28:17;96440.88;;;-3.21;100.00
20622;BME280;10470;42.670;23.354;2023-02-11T02:40:24;96437.13;;;-3.20;100.00
20622;BME280;10470;42.670;23.354;2023-02-11T02:43:12;96430.53;;;-3.23;100.00
20622;BME280;10470;42.670;23.354;2023-02-11T02:46:22;96432.13;;;-3.31;100.00
20622;BME280;10470;42.670;23.354;2023-02-11T02:49:15;96436.34;;;-3.30;100.00
20622;BME280;10470;42.670;23.354;2023-02-11T02:55:28;96443.34;;;-3.08;100.00
20622;BME280;10470;42.670;23.354;2023-02-11T03:04:51;96449.22;;;-3.32;100.00
20622;BME280;10470;42.670;23.354;2023-02-11T03:07:47;96451.09;;;-3.23;100.00
20622;BME280;10470;42.670;23.354;2023-02-11T03:10:40;96447.34;;;-3.40;100.00
20622;BME280;10470;42.670;23.354;2023-02-11T03:13:30;96452.19;;;-3.51;100.00
20622;BME280;10470;42.670;23.354;2023-02-11T03:16:20;96447.50;;;-3.54;100.00
20622;BME280;10470;42.670;23.354;2023-02-11T03:22:06;96445.94;;;-3.46;100.00
20622;BME280;10470;42.670;23.354;2023-02-11T03:24:54;96435.75;;;-3.44;100.00
20622;BME280;10470;42.670;23.354;2023-02-11T03:30:40;96442.19;;;-3.54;100.00
20622;BME280;10470;42.670;23.354;2023-02-11T03:33:34;96439.16;;;-3.35;100.00
20622;BME280;10470;42.670;23.354;2023-02-11T03:36:27;96445.31;;;-3.52;100.00
20622;BME280;10470;42.670;23.354;2023-02-11T03:39:21;96442.63;;;-3.43;100.00
20622;BME280;10470;42.670;23.354;2023-02-11T03:42:09;96439.19;;;-3.43;100.00
20622;BME280;10470;42.670;23.354;2023-02-11T03:45:00;96396.16;;;-3.80;100.00
20622;BME280;10470;42.670;23.354;2023-02-11T03:47:53;96431.84;;;-3.46;100.00
20622;BME280;10470;42.670;23.354;2023-02-11T03:50:40;96433.44;;;-3.63;100.00
20622;BME280;10470;42.670;23.354;2023-02-11T03:53:27;96423.06;;;-3.56;100.00
20622;BME280;10470;42.670;23.354;2023-02-11T03:56:17;96429.03;;;-3.50;100.00
20622;BME280;10470;42.670;23.354;2023-02-11T03:59:03;96435.63;;;-3.65;100.00
20622;BME280;10470;42.670;23.354;2023-02-11T04:01:49;96430.91;;;-3.77;100.00
20622;BME280;10470;42.670;23.354;2023-02-11T04:04:35;96430.13;;;-3.77;100.00
20622;BME280;10470;42.670;23.354;2023-02-11T04:07:20;96429.19;;;-3.64;100.00
20622;BME280;10470;42.670;23.354;2023-02-11T04:10:06;96430.75;;;-3.54;100.00
20622;BME280;10470;42.670;23.354;2023-02-11T04:12:52;96431.53;;;-3.54;100.00
20622;BME280;10470;42.670;23.354;2023-02-11T04:15:37;96436.09;;;-3.63;100.00
20622;BME280;10470;42.670;23.354;2023-02-11T04:18:23;96441.88;;;-3.52;100.00
20622;BME280;10470;42.670;23.354;2023-02-11T04:21:08;96440.75;;;-3.68;100.00
20622;BME280;10470;42.670;23.354;2023-02-11T04:23:54;96443.91;;;-3.66;100.00
20622;BME280;10470;42.670;23.354;2023-02-11T04:26:39;96432.94;;;-3.65;100.00
20622;BME280;10470;42.670;23.354;2023-02-11T04:29:24;96434.19;;;-3.71;100.00
20622;BME280;10470;42.670;23.354;2023-02-11T04:32:10;96430.75;;;-3.63;100.00
20622;BME280;10470;42.670;23.354;2023-02-11T04:34:56;96428.41;;;-3.73;100.00
20622;BME280;10470;42.670;23.354;2023-02-11T04:37:41;96426.38;;;-3.76;100.00
20622;BME280;10470;42.670;23.354;2023-02-11T04:40:26;96416.63;;;-4.15;100.00
20622;BME280;10470;42.670;23.354;2023-02-11T04:43:12;96402.53;;;-4.33;100.00
20622;BME280;10470;42.670;23.354;2023-02-11T04:45:57;96417.88;;;-4.30;100.00
20622;BME280;10470;42.670;23.354;2023-02-11T04:48:43;96428.19;;;-4.37;100.00
20622;BME280;10470;42.670;23.354;2023-02-11T04:51:29;96423.59;;;-4.63;100.00
20622;BME280;10470;42.670;23.354;2023-02-11T04:54:14;96423.22;;;-4.88;100.00
20622;BME280;10470;42.670;23.354;2023-02-11T04:56:59;96427.56;;;-4.92;100.00
20622;BME280;10470;42.670;23.354;2023-02-11T04:59:45;96423.75;;;-4.99;100.00
20622;BME280;10470;42.670;23.354;2023-02-11T05:02:30;96417.16;;;-4.71;100.00
20622;BME280;10470;42.670;23.354;2023-02-11T05:05:16;96417.66;;;-4.60;100.00
20622;BME280;10470;42.670;23.354;2023-02-11T05:08:01;96421.75;;;-4.94;100.00
20622;BME280;10470;42.670;23.354;2023-02-11T05:10:47;96420.34;;;-5.00;100.00
20622;BME280;10470;42.670;23.354;2023-02-11T05:13:33;96413.63;;;-4.97;100.00
20622;BME280;10470;42.670;23.354;2023-02-11T05:16:19;96408.38;;;-5.11;100.00
20622;BME280;10470;42.670;23.354;2023-02-11T05:19:04;96411.88;;;-5.02;100.00
20622;BME280;10470;42.670;23.354;2023-02-11T05:21:50;96409.88;;;-4.96;100.00
20622;BME280;10470;42.670;23.354;2023-02-11T05:24:35;96410.38;;;-4.86;100.00
20622;BME280;10470;42.670;23.354;2023-02-11T05:27:21;96412.31;;;-5.09;100.00
20622;BME280;10470;42.670;23.354;2023-02-11T05:30:07;96422.59;;;-5.16;100.00
20622;BME280;10470;42.670;23.354;2023-02-11T05:32:52;96417.56;;;-5.26;100.00
20622;BME280;10470;42.670;23.354;2023-02-11T05:35:38;96405.22;;;-5.22;100.00
20622;BME280;10470;42.670;23.354;2023-02-11T05:38:23;96411.59;;;-4.92;100.00
20622;BME280;10470;42.670;23.354;2023-02-11T05:41:10;96408.97;;;-4.83;100.00
20622;BME280;10470;42.670;23.354;2023-02-11T05:43:55;96418.97;;;-4.89;100.00
20622;BME280;10470;42.670;23.354;2023-02-11T05:46:41;96399.34;;;-5.10;100.00
20622;BME280;10470;42.670;23.354;2023-02-11T05:49:26;96419.28;;;-5.21;100.00
20622;BME280;10470;42.670;23.354;2023-02-11T05:52:11;96416.22;;;-5.06;100.00
20622;BME280;10470;42.670;23.354;2023-02-11T05:54:57;96414.38;;;-5.06;100.00
20622;BME280;10470;42.670;23.354;2023-02-11T05:57:42;96428.53;;;-4.79;100.00
20622;BME280;10470;42.670;23.354;2023-02-11T06:00:28;96424.78;;;-4.78;100.00
20622;BME280;10470;42.670;23.354;2023-02-11T06:03:13;96435.13;;;-4.68;100.00
20622;BME280;10470;42.670;23.354;2023-02-11T06:05:59;96421.81;;;-4.76;100.00
20622;BME280;10470;42.670;23.354;2023-02-11T06:08:44;96428.13;;;-4.64;100.00
20622;BME280;10470;42.670;23.354;2023-02-11T06:11:30;96424.88;;;-4.52;100.00
20622;BME280;10470;42.670;23.354;2023-02-11T06:14:15;96432.59;;;-4.81;100.00
20622;BME280;10470;42.670;23.354;2023-02-11T06:17:00;96428.84;;;-4.80;100.00
20622;BME280;10470;42.670;23.354;2023-02-11T06:19:46;96436.53;;;-4.79;100.00
20622;BME280;10470;42.670;23.354;2023-02-11T06:22:31;96436.59;;;-4.62;100.00
20622;BME280;10470;42.670;23.354;2023-02-11T06:25:17;96424.91;;;-4.83;100.00
20622;BME280;10470;42.670;23.354;2023-02-11T06:28:03;96423.63;;;-4.94;100.00
20622;BME280;10470;42.670;23.354;2023-02-11T06:30:48;96434.53;;;-4.65;100.00
20622;BME280;10470;42.670;23.354;2023-02-11T06:33:34;96430.81;;;-4.46;100.00
20622;BME280;10470;42.670;23.354;2023-02-11T06:36:21;96432.22;;;-4.49;100.00
20622;BME280;10470;42.670;23.354;2023-02-11T06:39:06;96420.38;;;-4.34;100.00
20622;BME280;10470;42.670;23.354;2023-02-11T06:41:52;96427.28;;;-4.15;100.00
20622;BME280;10470;42.670;23.354;2023-02-11T06:44:38;96426.19;;;-4.14;100.00
20622;BME280;10470;42.670;23.354;2023-02-11T06:47:24;96429.78;;;-4.10;100.00
20622;BME280;10470;42.670;23.354;2023-02-11T06:50:11;96440.63;;;-4.07;100.00
20622;BME280;10470;42.670;23.354;2023-02-11T06:53:00;96434.66;;;-3.95;100.00
20622;BME280;10470;42.670;23.354;2023-02-11T06:55:46;96445.47;;;-4.09;100.00
20622;BME280;10470;42.670;23.354;2023-02-11T06:58:32;96439.06;;;-3.90;100.00
20622;BME280;10470;42.670;23.354;2023-02-11T07:01:17;96444.06;;;-3.71;100.00
20622;BME280;10470;42.670;23.354;2023-02-11T07:04:02;96435.16;;;-4.02;100.00
20622;BME280;10470;42.670;23.354;2023-02-11T07:06:48;96445.94;;;-3.72;100.00
20622;BME280;10470;42.670;23.354;2023-02-11T07:09:33;96438.91;;;-3.59;100.00
20622;BME280;10470;42.670;23.354;2023-02-11T07:12:19;96435.28;;;-3.55;100.00
20622;BME280;10470;42.670;23.354;2023-02-11T07:15:04;96435.94;;;-3.58;100.00
20622;BME280;10470;42.670;23.354;2023-02-11T07:17:50;96424.94;;;-3.47;100.00
20622;BME280;10470;42.670;23.354;2023-02-11T07:20:36;96399.56;;;-3.45;100.00
20622;BME280;10470;42.670;23.354;2023-02-11T07:23:22;96424.91;;;-3.21;100.00
20622;BME280;10470;42.670;23.354;2023-02-11T07:26:14;96425.34;;;-3.11;100.00
20622;BME280;10470;42.670;23.354;2023-02-11T07:29:00;96425.69;;;-3.21;100.00
20622;BME280;10470;42.670;23.354;2023-02-11T07:31:45;96416.09;;;-3.13;100.00
20622;BME280;10470;42.670;23.354;2023-02-11T07:34:31;96415.84;;;-2.82;100.00
20622;BME280;10470;42.670;23.354;2023-02-11T07:37:18;96409.91;;;-2.88;100.00
20622;BME280;10470;42.670;23.354;2023-02-11T07:40:04;96404.41;;;-2.91;100.00
20622;BME280;10470;42.670;23.354;2023-02-11T07:42:50;96404.75;;;-2.63;100.00
20622;BME280;10470;42.670;23.354;2023-02-11T07:45:37;96405.31;;;-2.49;100.00
20622;BME280;10470;42.670;23.354;2023-02-11T07:48:23;96401.25;;;-2.55;100.00
20622;BME280;10470;42.670;23.354;2023-02-11T07:51:12;96407.94;;;-2.40;100.00
20622;BME280;10470;42.670;23.354;2023-02-11T07:53:58;96381.53;;;-2.92;100.00
20622;BME280;10470;42.670;23.354;2023-02-11T07:56:44;96401.25;;;-2.55;100.00
20622;BME280;10470;42.670;23.354;2023-02-11T07:59:30;96403.09;;;-2.47;100.00
20622;BME280;10470;42.670;23.354;2023-02-11T08:02:15;96399.28;;;-2.37;100.00
20622;BME280;10470;42.670;23.354;2023-02-11T08:05:00;96401.47;;;-2.39;100.00
20622;BME280;10470;42.670;23.354;2023-02-11T08:07:46;96396.41;;;-2.32;100.00
20622;BME280;10470;42.670;23.354;2023-02-11T08:10:31;96399.09;;;-2.32;100.00
20622;BME280;10470;42.670;23.354;2023-02-11T08:13:17;96390.13;;;-2.06;100.00
20622;BME280;10470;42.670;23.354;2023-02-11T08:16:03;96366.19;;;-2.15;100.00
20622;BME280;10470;42.670;23.354;2023-02-11T08:18:50;96388.78;;;-1.91;100.00
20622;BME280;10470;42.670;23.354;2023-02-11T08:21:36;96403.59;;;-1.61;100.00
20622;BME280;10470;42.670;23.354;2023-02-11T08:24:22;96394.34;;;-1.63;100.00
20622;BME280;10470;42.670;23.354;2023-02-11T08:27:07;96395.69;;;-1.57;100.00
20622;BME280;10470;42.670;23.354;2023-02-11T08:29:53;96378.31;;;-1.84;100.00
20622;BME280;10470;42.670;23.354;2023-02-11T08:32:39;96397.59;;;-1.58;100.00
20622;BME280;10470;42.670;23.354;2023-02-11T08:35:24;96399.72;;;-1.51;100.00
20622;BME280;10470;42.670;23.354;2023-02-11T08:38:10;96404.44;;;-1.36;100.00
20622;BME280;10470;42.670;23.354;2023-02-11T08:40:58;96402.66;;;-1.44;100.00
20622;BME280;10470;42.670;23.354;2023-02-11T08:43:44;96393.97;;;-1.41;100.00
20622;BME280;10470;42.670;23.354;2023-02-11T08:46:30;96398.47;;;-1.20;100.00
20622;BME280;10470;42.670;23.354;2023-02-11T08:49:15;96407.00;;;-0.94;100.00
20622;BME280;10470;42.670;23.354;2023-02-11T08:52:01;96405.38;;;-1.32;100.00
20622;BME280;10470;42.670;23.354;2023-02-11T08:54:48;96401.88;;;-0.86;100.00
20622;BME280;10470;42.670;23.354;2023-02-11T08:57:33;96396.56;;;-0.74;100.00
20622;BME280;10470;42.670;23.354;2023-02-11T09:00:19;96401.00;;;-0.78;100.00
20622;BME280;10470;42.670;23.354;2023-02-11T09:03:04;96399.56;;;-0.51;100.00
20622;BME280;10470;42.670;23.354;2023-02-11T09:05:50;96394.75;;;-0.58;100.00
20622;BME280;10470;42.670;23.354;2023-02-11T09:08:42;96408.94;;;-0.45;100.00
20622;BME280;10470;42.670;23.354;2023-02-11T09:11:35;96397.53;;;-0.30;100.00
20622;BME280;10470;42.670;23.354;2023-02-11T09:14:21;96396.22;;;-0.48;100.00
20622;BME280;10470;42.670;23.354;2023-02-11T09:17:08;96386.41;;;-0.56;100.00
20622;BME280;10470;42.670;23.354;2023-02-11T09:19:54;96395.19;;;-0.19;100.00
20622;BME280;10470;42.670;23.354;2023-02-11T09:22:39;96390.50;;;-0.34;100.00
20622;BME280;10470;42.670;23.354;2023-02-11T09:25:25;96384.00;;;-0.21;100.00
20622;BME280;10470;42.670;23.354;2023-02-11T09:28:10;96378.72;;;0.07;100.00
20622;BME280;10470;42.670;23.354;2023-02-11T09:30:56;96387.16;;;-0.19;100.00
20622;BME280;10470;42.670;23.354;2023-02-11T09:33:43;96384.13;;;-0.17;100.00
20622;BME280;10470;42.670;23.354;2023-02-11T09:36:35;96362.78;;;-0.02;100.00
20622;BME280;10470;42.670;23.354;2023-02-11T09:39:21;96381.31;;;0.32;100.00
20622;BME280;10470;42.670;23.354;2023-02-11T09:45:21;96360.78;;;0.52;100.00
20622;BME280;10470;42.670;23.354;2023-02-11T09:48:17;96349.72;;;0.53;100.00
20622;BME280;10470;42.670;23.354;2023-02-11T09:51:03;96351.59;;;0.37;100.00
20622;BME280;10470;42.670;23.354;2023-02-11T09:53:50;96366.94;;;0.24;100.00
20622;BME280;10470;42.670;23.354;2023-02-11T09:56:38;96349.50;;;0.30;100.00
20622;BME280;10470;42.670;23.354;2023-02-11T09:59:24;96341.13;;;0.76;100.00
20622;BME280;10470;42.670;23.354;2023-02-11T10:02:42;96334.53;;;0.73;100.00
20622;BME280;10470;42.670;23.354;2023-02-11T10:05:46;96328.53;;;0.64;100.00
20622;BME280;10470;42.670;23.354;2023-02-11T10:08:47;96321.34;;;0.52;100.00
20622;BME280;10470;42.670;23.354;2023-02-11T10:17:39;96312.19;;;0.69;100.00
20622;BME280;10470;42.670;23.354;2023-02-11T10:20:35;96308.22;;;0.63;100.00
20622;BME280;10470;42.670;23.354;2023-02-11T10:23:24;96303.88;;;1.22;100.00
20622;BME280;10470;42.670;23.354;2023-02-11T10:26:13;96280.09;;;0.89;100.00
20622;BME280;10470;42.670;23.354;2023-02-11T10:29:05;96278.00;;;0.98;100.00
20622;BME280;10470;42.670;23.354;2023-02-11T10:31:57;96279.16;;;1.32;100.00
20622;BME280;10470;42.670;23.354;2023-02-11T10:34:44;96263.09;;;1.71;100.00
20622;BME280;10470;42.670;23.354;2023-02-11T10:37:29;96259.44;;;1.24;100.00
20622;BME280;10470;42.670;23.354;2023-02-11T10:40:21;96241.28;;;1.72;100.00
20622;BME280;10470;42.670;23.354;2023-02-11T10:43:14;96234.06;;;1.96;98.78
20622;BME280;10470;42.670;23.354;2023-02-11T10:46:02;96234.22;;;2.26;97.88
20622;BME280;10470;42.670;23.354;2023-02-11T10:48:50;96237.22;;;2.21;93.70
20622;BME280;10470;42.670;23.354;2023-02-11T10:51:37;96227.56;;;2.20;90.01
20622;BME280;10470;42.670;23.354;2023-02-11T10:54:22;96216.00;;;3.12;88.90
20622;BME280;10470;42.670;23.354;2023-02-11T10:57:17;96219.53;;;2.93;83.61
20622;BME280;10470;42.670;23.354;2023-02-11T11:03:18;96211.53;;;2.24;72.44
20622;BME280;10470;42.670;23.354;2023-02-11T11:06:07;96208.72;;;3.16;69.30
20622;BME280;10470;42.670;23.354;2023-02-11T11:08:53;96211.22;;;3.28;67.28
20622;BME280;10470;42.670;23.354;2023-02-11T11:11:50;96218.56;;;3.61;66.98
20622;BME280;10470;42.670;23.354;2023-02-11T11:14:36;96213.63;;;4.01;64.00
20622;BME280;10470;42.670;23.354;2023-02-11T11:17:21;96208.59;;;4.81;61.77
20622;BME280;10470;42.670;23.354;2023-02-11T11:20:26;96207.09;;;4.87;58.95
20622;BME280;10470;42.670;23.354;2023-02-11T11:23:17;96207.78;;;4.32;58.09
20622;BME280;10470;42.670;23.354;2023-02-11T11:26:12;96214.28;;;5.24;56.46
20622;BME280;10470;42.670;23.354;2023-02-11T11:29:08;96204.28;;;4.73;55.97
20622;BME280;10470;42.670;23.354;2023-02-11T11:31:57;96206.22;;;5.31;54.11
20622;BME280;10470;42.670;23.354;2023-02-11T11:34:55;96198.47;;;4.67;53.54
20622;BME280;10470;42.670;23.354;2023-02-11T11:37:43;96205.03;;;6.09;53.21
20622;BME280;10470;42.670;23.354;2023-02-11T11:40:32;96203.66;;;5.56;51.90
20622;BME280;10470;42.670;23.354;2023-02-11T11:43:18;96190.75;;;5.32;51.96
20622;BME280;10470;42.670;23.354;2023-02-11T11:46:04;96193.47;;;5.32;51.90
20622;BME280;10470;42.670;23.354;2023-02-11T11:49:06;96190.03;;;6.58;50.54
20622;BME280;10470;42.670;23.354;2023-02-11T11:55:19;96191.16;;;7.07;48.57
20622;BME280;10470;42.670;23.354;2023-02-11T11:58:14;96185.75;;;6.43;47.78
20622;BME280;10470;42.670;23.354;2023-02-11T12:07:01;96169.34;;;5.78;49.67
20622;BME280;10470;42.670;23.354;2023-02-11T12:13:36;96156.34;;;6.95;48.36
20622;BME280;10470;42.670;23.354;2023-02-11T12:19:34;96149.41;;;6.83;47.95
20622;BME280;10470;42.670;23.354;2023-02-11T12:25:27;96140.56;;;7.81;46.47
20622;BME280;10470;42.670;23.354;2023-02-11T12:28:39;96131.63;;;8.51;45.61
20622;BME280;10470;42.670;23.354;2023-02-11T12:37:57;96120.06;;;8.43;42.56
20622;BME280;10470;42.670;23.354;2023-02-11T12:41:12;96116.00;;;8.62;42.09
20622;BME280;10470;42.670;23.354;2023-02-11T12:43:59;96113.56;;;8.23;41.82
20622;BME280;10470;42.670;23.354;2023-02-11T12:46:55;96115.94;;;8.17;40.77
20622;BME280;10470;42.670;23.354;2023-02-11T12:50:10;96110.78;;;7.67;40.87
20622;BME280;10470;42.670;23.354;2023-02-11T12:55:51;96097.72;;;9.42;38.42
20622;BME280;10470;42.670;23.354;2023-02-11T12:58:39;96099.75;;;9.34;39.45
20622;BME280;10470;42.670;23.354;2023-02-11T13:01:31;96105.88;;;10.31;39.49
20622;BME280;10470;42.670;23.354;2023-02-11T13:07:14;96113.41;;;10.46;38.31
20622;BME280;10470;42.670;23.354;2023-02-11T13:10:07;96110.44;;;11.48;37.66
20622;BME280;10470;42.670;23.354;2023-02-11T13:13:04;96096.97;;;10.54;38.37
20622;BME280;10470;42.670;23.354;2023-02-11T13:16:04;96097.56;;;11.28;37.42
20622;BME280;10470;42.670;23.354;2023-02-11T13:22:33;96086.44;;;12.48;36.29
20622;BME280;10470;42.670;23.354;2023-02-11T13:25:28;96091.16;;;11.95;35.84
20622;BME280;10470;42.670;23.354;2023-02-11T13:28:24;96085.03;;;11.91;36.16
20622;BME280;10470;42.670;23.354;2023-02-11T13:31:12;96088.94;;;11.70;35.89
20622;BME280;10470;42.670;23.354;2023-02-11T13:34:00;96094.50;;;10.83;36.80
20622;BME280;10470;42.670;23.354;2023-02-11T13:36:55;96082.81;;;11.46;35.99
20622;BME280;10470;42.670;23.354;2023-02-11T13:39:41;96091.03;;;12.18;35.38
20622;BME280;10470;42.670;23.354;2023-02-11T13:42:28;96081.63;;;13.43;34.47
20622;BME280;10470;42.670;23.354;2023-02-11T13:45:34;96078.38;;;12.74;34.31
20622;BME280;10470;42.670;23.354;2023-02-11T13:48:25;96071.97;;;13.68;34.30
20622;BME280;10470;42.670;23.354;2023-02-11T13:51:16;96076.59;;;14.48;33.18
20622;BME280;10470;42.670;23.354;2023-02-11T13:54:04;96067.47;;;13.87;32.08
20622;BME280;10470;42.670;23.354;2023-02-11T14:06:33;96057.75;;;14.11;30.89
20622;BME280;10470;42.670;23.354;2023-02-11T14:09:38;96041.59;;;14.01;31.35
20622;BME280;10470;42.670;23.354;2023-02-11T14:12:31;96045.75;;;12.66;30.92
20622;BME280;10470;42.670;23.354;2023-02-11T14:15:19;96055.19;;;12.95;31.36
20622;BME280;10470;42.670;23.354;2023-02-11T14:21:31;96050.50;;;12.79;32.93
20622;BME280;10470;42.670;23.354;2023-02-11T14:30:37;96027.72;;;8.40;36.73
20622;BME280;10470;42.670;23.354;2023-02-11T14:36:48;96017.47;;;6.66;40.90
20622;BME280;10470;42.670;23.354;2023-02-11T14:42:28;96031.78;;;5.73;43.30
20622;BME280;10470;42.670;23.354;2023-02-11T14:45:19;96026.41;;;5.80;44.19
20622;BME280;10470;42.670;23.354;2023-02-11T14:48:14;96023.69;;;5.69;44.36
20622;BME280;10470;42.670;23.354;2023-02-11T14:51:09;96030.22;;;5.40;44.80
20622;BME280;10470;42.670;23.354;2023-02-11T14:54:08;96031.00;;;5.62;45.08
20622;BME280;10470;42.670;23.354;2023-02-11T14:57:15;96028.69;;;5.42;45.68
20622;BME280;10470;42.670;23.354;2023-02-11T15:00:16;96025.94;;;5.24;45.87
20622;BME280;10470;42.670;23.354;2023-02-11T15:03:02;96014.31;;;5.20;46.08
20622;BME280;10470;42.670;23.354;2023-02-11T15:05:53;96015.03;;;5.03;46.32
20622;BME280;10470;42.670;23.354;2023-02-11T15:08:43;96015.72;;;4.82;47.08
20622;BME280;10470;42.670;23.354;2023-02-11T15:11:33;96013.50;;;5.06;47.45
20622;BME280;10470;42.670;23.354;2023-02-11T15:14:33;96004.56;;;4.84;47.92
20622;BME280;10470;42.670;23.354;2023-02-11T15:17:25;96000.31;;;4.86;48.23
20622;BME280;10470;42.670;23.354;2023-02-11T15:20:19;95993.78;;;4.91;48.11
20622;BME280;10470;42.670;23.354;2023-02-11T15:23:10;95994.88;;;4.75;48.52
20622;BME280;10470;42.670;23.354;2023-02-11T15:25:59;95999.03;;;4.58;48.29
20622;BME280;10470;42.670;23.354;2023-02-11T15:28:48;95984.69;;;4.44;48.90
20622;BME280;10470;42.670;23.354;2023-02-11T15:31:36;95984.34;;;4.52;49.15
20622;BME280;10470;42.670;23.354;2023-02-11T15:34:21;95981.16;;;4.32;49.65
20622;BME280;10470;42.670;23.354;2023-02-11T15:37:11;95981.44;;;4.20;49.95
20622;BME280;10470;42.670;23.354;2023-02-11T15:40:19;95974.50;;;4.15;50.66
20622;BME280;10470;42.670;23.354;2023-02-11T15:43:07;95977.50;;;4.03;51.00
20622;BME280;10470;42.670;23.354;2023-02-11T15:45:57;95980.41;;;3.80;51.86
20622;BME280;10470;42.670;23.354;2023-02-11T15:48:49;95975.50;;;3.89;52.04
20622;BME280;10470;42.670;23.354;2023-02-11T15:51:36;95976.94;;;3.80;52.64
20622;BME280;10470;42.670;23.354;2023-02-11T15:54:25;95983.00;;;3.66;52.68
20622;BME280;10470;42.670;23.354;2023-02-11T15:57:12;95972.94;;;3.59;53.06
20622;BME280;10470;42.670;23.354;2023-02-11T15:59:58;95973.63;;;3.53;53.64
20622;BME280;10470;42.670;23.354;2023-02-11T16:02:48;95980.09;;;3.44;54.25
20622;BME280;10470;42.670;23.354;2023-02-11T16:05:36;95972.03;;;3.44;54.75
20622;BME280;10470;42.670;23.354;2023-02-11T16:08:25;95972.31;;;3.32;55.35
20622;BME280;10470;42.670;23.354;2023-02-11T16:11:28;95968.03;;;3.27;56.21
20622;BME280;10470;42.670;23.354;2023-02-11T16:17:10;95960.63;;;3.17;57.46
20622;BME280;10470;42.670;23.354;2023-02-11T16:19:57;95969.69;;;3.02;58.49
20622;BME280;10470;42.670;23.354;2023-02-11T16:22:44;95967.75;;;2.99;59.51
20622;BME280;10470;42.670;23.354;2023-02-11T16:25:30;95949.84;;;2.80;60.92